ANZ656 YSSY-YMML
Flight info
| Callsign | ANZ656 |
|---|---|
| Flight time | 1h 11m |
| Altitude | 36000 |
| Route | MARUB7/34R WOL H65 LEECE Q29 ML |
| Aircraft | A320/M-SDE3FGHIRWY/LB1 |
Departure
| Time | 2026-05-04 06:26 |
|---|---|
| Airport | Sydney Kingsford Smith International Airport (YSSY) |
Arrival
| Time | 2026-05-04 07:38 |
|---|---|
| Airport | Melbourne Airport (YMML) |
| Time | Latitude | Longitude | Altitude | Speed | Heading |
|---|---|---|---|---|---|
| 2026-05-04 05:27 | -33.93556 | 151.17993 | 30 ft | 0 kts | 280° |
| 2026-05-04 06:01 | -33.93558 | 151.18005 | 30 ft | 2 kts | 280° |
| 2026-05-04 06:01 | -33.93561 | 151.18025 | 30 ft | 3 kts | 277° |
| 2026-05-04 06:03 | -33.93544 | 151.18066 | 30 ft | 0 kts | 198° |
| 2026-05-04 06:06 | -33.93560 | 151.18061 | 30 ft | 4 kts | 192° |
| 2026-05-04 06:06 | -33.93594 | 151.18054 | 30 ft | 6 kts | 189° |
| 2026-05-04 06:06 | -33.93647 | 151.18049 | 30 ft | 9 kts | 182° |
| 2026-05-04 06:07 | -33.93714 | 151.18059 | 30 ft | 10 kts | 170° |
| 2026-05-04 06:07 | -33.93776 | 151.18041 | 30 ft | 10 kts | 239° |
| 2026-05-04 06:07 | -33.93799 | 151.17952 | 30 ft | 12 kts | 254° |
| 2026-05-04 06:07 | -33.93821 | 151.17855 | 30 ft | 10 kts | 254° |
| 2026-05-04 06:08 | -33.93826 | 151.17837 | 30 ft | 2 kts | 254° |
| 2026-05-04 06:08 | -33.93833 | 151.17806 | 30 ft | 6 kts | 254° |
| 2026-05-04 06:08 | -33.93847 | 151.17748 | 30 ft | 9 kts | 254° |
| 2026-05-04 06:08 | -33.93866 | 151.17665 | 29 ft | 12 kts | 254° |
| 2026-05-04 06:09 | -33.93888 | 151.17570 | 29 ft | 8 kts | 254° |
| 2026-05-04 06:09 | -33.93894 | 151.17546 | 28 ft | 0 kts | 253° |
| 2026-05-04 06:11 | -33.93903 | 151.17510 | 28 ft | 13 kts | 254° |
| 2026-05-04 06:11 | -33.93932 | 151.17386 | 27 ft | 17 kts | 254° |
| 2026-05-04 06:13 | -33.94746 | 151.17427 | 30 ft | 24 kts | 167° |
| 2026-05-04 06:14 | -33.95198 | 151.17543 | 29 ft | 0 kts | 167° |
| 2026-05-04 06:15 | -33.95233 | 151.17553 | 29 ft | 13 kts | 165° |
| 2026-05-04 06:15 | -33.95257 | 151.17653 | 29 ft | 16 kts | 78° |
| 2026-05-04 06:15 | -33.95230 | 151.17801 | 29 ft | 20 kts | 77° |
| 2026-05-04 06:16 | -33.95201 | 151.17957 | 30 ft | 11 kts | 78° |
| 2026-05-04 06:16 | -33.95194 | 151.17992 | 30 ft | 0 kts | 77° |
| 2026-05-04 06:20 | -33.95186 | 151.18622 | 30 ft | 27 kts | 135° |
| 2026-05-04 06:20 | -33.95363 | 151.18731 | 30 ft | 30 kts | 167° |
| 2026-05-04 06:21 | -33.96288 | 151.18972 | 30 ft | 38 kts | 167° |
| 2026-05-04 06:21 | -33.96474 | 151.19017 | 30 ft | 22 kts | 170° |
| 2026-05-04 06:22 | -33.96631 | 151.19059 | 30 ft | 24 kts | 167° |
| 2026-05-04 06:22 | -33.96780 | 151.19063 | 30 ft | 21 kts | 188° |
| 2026-05-04 06:25 | -33.97016 | 151.19362 | 25 ft | 0 kts | 346° |
| 2026-05-04 06:25 | -33.96911 | 151.19333 | 24 ft | 48 kts | 348° |
| 2026-05-04 06:26 | -33.96353 | 151.19189 | 27 ft | 116 kts | 348° |
| 2026-05-04 06:26 | -33.95367 | 151.18940 | 217 ft | 162 kts | 348° |
| 2026-05-04 06:26 | -33.94238 | 151.18664 | 855 ft | 168 kts | 354° |
| 2026-05-04 06:26 | -33.93128 | 151.18950 | 1590 ft | 170 kts | 38° |
| 2026-05-04 06:27 | -33.93814 | 151.25079 | 3894 ft | 205 kts | 82° |
| 2026-05-04 06:28 | -33.93780 | 151.26812 | 4477 ft | 208 kts | 82° |
| 2026-05-04 06:28 | -33.93728 | 151.28625 | 4800 ft | 228 kts | 82° |
| 2026-05-04 06:28 | -33.93662 | 151.30636 | 5025 ft | 253 kts | 82° |
| 2026-05-04 06:28 | -33.93589 | 151.32863 | 5402 ft | 278 kts | 83° |
| 2026-05-04 06:29 | -33.93518 | 151.35249 | 6066 ft | 290 kts | 83° |
| 2026-05-04 06:29 | -33.93454 | 151.37697 | 6894 ft | 295 kts | 84° |
| 2026-05-04 06:29 | -33.93388 | 151.40180 | 7722 ft | 298 kts | 84° |
| 2026-05-04 06:29 | -33.93318 | 151.42692 | 8555 ft | 302 kts | 84° |
| 2026-05-04 06:30 | -33.93246 | 151.45243 | 9394 ft | 306 kts | 84° |
| 2026-05-04 06:30 | -33.93174 | 151.47821 | 10179 ft | 311 kts | 84° |
| 2026-05-04 06:30 | -33.93322 | 151.50518 | 10474 ft | 338 kts | 100° |
| 2026-05-04 06:30 | -33.94204 | 151.53193 | 10822 ft | 357 kts | 121° |
| 2026-05-04 06:31 | -33.95821 | 151.55495 | 11445 ft | 364 kts | 140° |
| 2026-05-04 06:31 | -33.97980 | 151.57097 | 12122 ft | 367 kts | 160° |
| 2026-05-04 06:31 | -34.00458 | 151.57745 | 12800 ft | 365 kts | 182° |
| 2026-05-04 06:31 | -34.02951 | 151.57328 | 13468 ft | 361 kts | 203° |
| 2026-05-04 06:32 | -34.05153 | 151.55944 | 14092 ft | 356 kts | 223° |
| 2026-05-04 06:33 | -34.16219 | 151.39594 | 18321 ft | 370 kts | 237° |
| 2026-05-04 06:34 | -34.17830 | 151.37155 | 18837 ft | 373 kts | 237° |
| 2026-05-04 06:34 | -34.19449 | 151.34699 | 19420 ft | 375 kts | 237° |
| 2026-05-04 06:34 | -34.21078 | 151.32225 | 20013 ft | 376 kts | 237° |
| 2026-05-04 06:34 | -34.22707 | 151.29752 | 20594 ft | 378 kts | 237° |
| 2026-05-04 06:35 | -34.24347 | 151.27260 | 21158 ft | 379 kts | 237° |
| 2026-05-04 06:36 | -34.35975 | 151.09525 | 24578 ft | 392 kts | 238° |
| 2026-05-04 06:37 | -34.37677 | 151.06924 | 24977 ft | 395 kts | 238° |
| 2026-05-04 06:37 | -34.39387 | 151.04310 | 25368 ft | 397 kts | 238° |
| 2026-05-04 06:37 | -34.41103 | 151.01681 | 25760 ft | 400 kts | 238° |
| 2026-05-04 06:37 | -34.42835 | 150.99024 | 26152 ft | 402 kts | 238° |
| 2026-05-04 06:38 | -34.44571 | 150.96358 | 26541 ft | 405 kts | 238° |
| 2026-05-04 06:38 | -34.46322 | 150.93670 | 26919 ft | 408 kts | 238° |
| 2026-05-04 06:40 | -34.58816 | 150.74247 | 29480 ft | 426 kts | 240° |
| 2026-05-04 06:40 | -34.60568 | 150.71336 | 29831 ft | 428 kts | 240° |
| 2026-05-04 06:40 | -34.62318 | 150.68394 | 30170 ft | 431 kts | 240° |
| 2026-05-04 06:40 | -34.64073 | 150.65429 | 30488 ft | 433 kts | 241° |
| 2026-05-04 06:41 | -34.65842 | 150.62456 | 30827 ft | 435 kts | 241° |
| 2026-05-04 06:41 | -34.67621 | 150.59481 | 31224 ft | 435 kts | 241° |
| 2026-05-04 06:41 | -34.69396 | 150.56524 | 31749 ft | 431 kts | 241° |
| 2026-05-04 06:41 | -34.71162 | 150.53593 | 32312 ft | 428 kts | 241° |
| 2026-05-04 06:42 | -34.72911 | 150.50690 | 32879 ft | 424 kts | 242° |
| 2026-05-04 06:42 | -34.74643 | 150.47811 | 33431 ft | 420 kts | 242° |
| 2026-05-04 06:42 | -34.76358 | 150.44957 | 34010 ft | 416 kts | 242° |
| 2026-05-04 06:44 | -34.87909 | 150.25215 | 35993 ft | 420 kts | 240° |
| 2026-05-04 06:44 | -34.91520 | 150.19502 | 35997 ft | 431 kts | 241° |
| 2026-05-04 06:45 | -34.95086 | 150.13596 | 35997 ft | 434 kts | 242° |
| 2026-05-04 06:45 | -34.98600 | 150.07601 | 35995 ft | 434 kts | 243° |
| 2026-05-04 06:46 | -35.02113 | 150.01608 | 35999 ft | 435 kts | 242° |
| 2026-05-04 06:46 | -35.05642 | 149.95638 | 36001 ft | 436 kts | 242° |
| 2026-05-04 06:48 | -35.19854 | 149.71511 | 36008 ft | 439 kts | 243° |
| 2026-05-04 06:50 | -35.34103 | 149.47119 | 36041 ft | 442 kts | 243° |
| 2026-05-04 06:51 | -35.37674 | 149.40984 | 36057 ft | 442 kts | 243° |
| 2026-05-04 06:51 | -35.41245 | 149.34846 | 36064 ft | 442 kts | 243° |
| 2026-05-04 06:52 | -35.44808 | 149.28692 | 36074 ft | 443 kts | 243° |
| 2026-05-04 06:52 | -35.48372 | 149.22523 | 36065 ft | 442 kts | 243° |
| 2026-05-04 06:53 | -35.51906 | 149.16400 | 36059 ft | 443 kts | 243° |
| 2026-05-04 06:53 | -35.55468 | 149.10229 | 36050 ft | 443 kts | 243° |
| 2026-05-04 06:54 | -35.58985 | 149.04142 | 36008 ft | 425 kts | 244° |
| 2026-05-04 06:54 | -35.62345 | 148.98323 | 36001 ft | 414 kts | 244° |
| 2026-05-04 06:55 | -35.65646 | 148.92543 | 36005 ft | 412 kts | 244° |
| 2026-05-04 06:55 | -35.68935 | 148.86778 | 36011 ft | 412 kts | 244° |
| 2026-05-04 06:57 | -35.82114 | 148.63674 | 36035 ft | 413 kts | 245° |
| 2026-05-04 06:58 | -35.85406 | 148.57869 | 36044 ft | 413 kts | 245° |
| 2026-05-04 06:58 | -35.88698 | 148.52060 | 36054 ft | 413 kts | 245° |
| 2026-05-04 06:59 | -35.91985 | 148.46240 | 36051 ft | 413 kts | 245° |
| 2026-05-04 06:59 | -35.95261 | 148.40409 | 36048 ft | 413 kts | 245° |
| 2026-05-04 07:01 | -36.06827 | 148.19756 | 36033 ft | 433 kts | 245° |
| 2026-05-04 07:01 | -36.07959 | 148.17724 | 36036 ft | 435 kts | 245° |
| 2026-05-04 07:02 | -36.11419 | 148.11536 | 36038 ft | 438 kts | 244° |
| 2026-05-04 07:02 | -36.14893 | 148.05336 | 36034 ft | 439 kts | 244° |
| 2026-05-04 07:03 | -36.18934 | 147.98121 | 36031 ft | 439 kts | 244° |
| 2026-05-04 07:03 | -36.21842 | 147.92906 | 36032 ft | 439 kts | 244° |
| 2026-05-04 07:04 | -36.25309 | 147.86676 | 36044 ft | 439 kts | 244° |
| 2026-05-04 07:04 | -36.28770 | 147.80453 | 36036 ft | 439 kts | 244° |
| 2026-05-04 07:05 | -36.32228 | 147.74212 | 36048 ft | 439 kts | 244° |
| 2026-05-04 07:05 | -36.35690 | 147.67962 | 36040 ft | 440 kts | 244° |
| 2026-05-04 07:06 | -36.40871 | 147.58560 | 36040 ft | 440 kts | 244° |
| 2026-05-04 07:07 | -36.44300 | 147.52319 | 36035 ft | 441 kts | 244° |
| 2026-05-04 07:09 | -36.58115 | 147.27060 | 36036 ft | 442 kts | 244° |
| 2026-05-04 07:09 | -36.61571 | 147.20724 | 36035 ft | 443 kts | 244° |
| 2026-05-04 07:10 | -36.65018 | 147.14376 | 36043 ft | 443 kts | 244° |
| 2026-05-04 07:12 | -36.78777 | 146.88934 | 36027 ft | 443 kts | 244° |
| 2026-05-04 07:12 | -36.82174 | 146.82661 | 35536 ft | 429 kts | 244° |
| 2026-05-04 07:12 | -36.83850 | 146.79549 | 34449 ft | 432 kts | 245° |
| 2026-05-04 07:13 | -36.85521 | 146.76441 | 33661 ft | 427 kts | 245° |
| 2026-05-04 07:13 | -36.87151 | 146.73423 | 33237 ft | 412 kts | 245° |
| 2026-05-04 07:13 | -36.88736 | 146.70483 | 32790 ft | 406 kts | 245° |
| 2026-05-04 07:14 | -36.94911 | 146.58898 | 31008 ft | 395 kts | 246° |
| 2026-05-04 07:14 | -36.96430 | 146.56046 | 30584 ft | 393 kts | 246° |
| 2026-05-04 07:15 | -36.97944 | 146.53212 | 30164 ft | 391 kts | 246° |
| 2026-05-04 07:15 | -36.99451 | 146.50395 | 29696 ft | 388 kts | 246° |
| 2026-05-04 07:15 | -37.00945 | 146.47602 | 29299 ft | 384 kts | 246° |
| 2026-05-04 07:15 | -37.02422 | 146.44835 | 28894 ft | 381 kts | 246° |
| 2026-05-04 07:16 | -37.03883 | 146.42090 | 28505 ft | 377 kts | 246° |
| 2026-05-04 07:16 | -37.05328 | 146.39365 | 28121 ft | 374 kts | 246° |
| 2026-05-04 07:16 | -37.06743 | 146.36694 | 27735 ft | 372 kts | 246° |
| 2026-05-04 07:16 | -37.08193 | 146.33964 | 27338 ft | 370 kts | 246° |
| 2026-05-04 07:17 | -37.09613 | 146.31284 | 26937 ft | 368 kts | 246° |
| 2026-05-04 07:17 | -37.11003 | 146.28658 | 26541 ft | 366 kts | 246° |
| 2026-05-04 07:17 | -37.12403 | 146.26011 | 26139 ft | 363 kts | 246° |
| 2026-05-04 07:17 | -37.13792 | 146.23383 | 25746 ft | 362 kts | 246° |
| 2026-05-04 07:18 | -37.15179 | 146.20751 | 25328 ft | 360 kts | 246° |
| 2026-05-04 07:18 | -37.16555 | 146.18138 | 24914 ft | 359 kts | 246° |
| 2026-05-04 07:18 | -37.17934 | 146.15521 | 24491 ft | 358 kts | 246° |
| 2026-05-04 07:18 | -37.19309 | 146.12914 | 24062 ft | 358 kts | 246° |
| 2026-05-04 07:19 | -37.20687 | 146.10304 | 23634 ft | 363 kts | 245° |
| 2026-05-04 07:19 | -37.22106 | 146.07588 | 23117 ft | 377 kts | 245° |
| 2026-05-04 07:19 | -37.23549 | 146.04830 | 22658 ft | 378 kts | 244° |
| 2026-05-04 07:19 | -37.25022 | 146.02017 | 22172 ft | 393 kts | 244° |
| 2026-05-04 07:20 | -37.26537 | 145.99122 | 21683 ft | 398 kts | 243° |
| 2026-05-04 07:20 | -37.28059 | 145.96229 | 21198 ft | 396 kts | 243° |
| 2026-05-04 07:20 | -37.29574 | 145.93355 | 20702 ft | 393 kts | 243° |
| 2026-05-04 07:20 | -37.31077 | 145.90501 | 20213 ft | 390 kts | 242° |
| 2026-05-04 07:22 | -37.41125 | 145.71375 | 17360 ft | 350 kts | 241° |
| 2026-05-04 07:22 | -37.42452 | 145.68825 | 16868 ft | 347 kts | 241° |
| 2026-05-04 07:23 | -37.43766 | 145.66297 | 16372 ft | 344 kts | 241° |
| 2026-05-04 07:23 | -37.45073 | 145.63792 | 15852 ft | 341 kts | 241° |
| 2026-05-04 07:23 | -37.46417 | 145.61336 | 15351 ft | 339 kts | 239° |
| 2026-05-04 07:23 | -37.47798 | 145.58945 | 14890 ft | 337 kts | 238° |
| 2026-05-04 07:24 | -37.49194 | 145.56587 | 14410 ft | 335 kts | 238° |
| 2026-05-04 07:24 | -37.50591 | 145.54239 | 13954 ft | 333 kts | 238° |
| 2026-05-04 07:24 | -37.51966 | 145.51914 | 13506 ft | 330 kts | 238° |
| 2026-05-04 07:24 | -37.53325 | 145.49600 | 13076 ft | 327 kts | 238° |
| 2026-05-04 07:25 | -37.54668 | 145.47297 | 12661 ft | 325 kts | 238° |
| 2026-05-04 07:26 | -37.63532 | 145.32001 | 9978 ft | 281 kts | 240° |
| 2026-05-04 07:27 | -37.64666 | 145.30029 | 9506 ft | 274 kts | 240° |
| 2026-05-04 07:27 | -37.65786 | 145.28078 | 9128 ft | 275 kts | 240° |
| 2026-05-04 07:27 | -37.66908 | 145.26122 | 8767 ft | 275 kts | 241° |
| 2026-05-04 07:27 | -37.68029 | 145.24167 | 8416 ft | 275 kts | 241° |
| 2026-05-04 07:28 | -37.69147 | 145.22217 | 8067 ft | 274 kts | 241° |
| 2026-05-04 07:28 | -37.70263 | 145.20271 | 7723 ft | 273 kts | 241° |
| 2026-05-04 07:28 | -37.71379 | 145.18329 | 7376 ft | 273 kts | 241° |
| 2026-05-04 07:28 | -37.72476 | 145.16420 | 7033 ft | 272 kts | 241° |
| 2026-05-04 07:29 | -37.73581 | 145.14496 | 6719 ft | 270 kts | 241° |
| 2026-05-04 07:29 | -37.74668 | 145.12611 | 6597 ft | 261 kts | 241° |
| 2026-05-04 07:29 | -37.75718 | 145.10791 | 6469 ft | 253 kts | 242° |
| 2026-05-04 07:29 | -37.76735 | 145.09029 | 6392 ft | 244 kts | 242° |
| 2026-05-04 07:30 | -37.77735 | 145.07283 | 6020 ft | 246 kts | 242° |
| 2026-05-04 07:30 | -37.78731 | 145.05536 | 5666 ft | 245 kts | 242° |
| 2026-05-04 07:30 | -37.79732 | 145.03781 | 5325 ft | 246 kts | 242° |
| 2026-05-04 07:30 | -37.80738 | 145.02018 | 4977 ft | 248 kts | 243° |
| 2026-05-04 07:31 | -37.81492 | 145.00111 | 4641 ft | 238 kts | 261° |
| 2026-05-04 07:31 | -37.81858 | 144.98085 | 4301 ft | 236 kts | 264° |
| 2026-05-04 07:33 | -37.81576 | 144.86535 | 2335 ft | 159 kts | 346° |
| 2026-05-04 07:33 | -37.80504 | 144.86342 | 2212 ft | 153 kts | 347° |
| 2026-05-04 07:33 | -37.79470 | 144.86150 | 2108 ft | 149 kts | 347° |
| 2026-05-04 07:33 | -37.78443 | 144.85957 | 2002 ft | 148 kts | 347° |
| 2026-05-04 07:34 | -37.77427 | 144.85765 | 1899 ft | 150 kts | 348° |
| 2026-05-04 07:34 | -37.76379 | 144.85567 | 1787 ft | 151 kts | 348° |
| 2026-05-04 07:34 | -37.75358 | 144.85374 | 1675 ft | 148 kts | 348° |
| 2026-05-04 07:34 | -37.74362 | 144.85187 | 1509 ft | 144 kts | 348° |
| 2026-05-04 07:35 | -37.73384 | 144.85004 | 1311 ft | 140 kts | 349° |
| 2026-05-04 07:35 | -37.72456 | 144.84831 | 1118 ft | 132 kts | 351° |
| 2026-05-04 07:35 | -37.71563 | 144.84670 | 935 ft | 128 kts | 353° |
| 2026-05-04 07:35 | -37.70691 | 144.84527 | 793 ft | 124 kts | 352° |
| 2026-05-04 07:36 | -37.69836 | 144.84336 | 682 ft | 124 kts | 352° |
| 2026-05-04 07:36 | -37.68984 | 144.84156 | 502 ft | 124 kts | 354° |
| 2026-05-04 07:38 | -37.66792 | 144.83938 | 393 ft | 0 kts | 24° |
| 2026-05-04 07:40 | -37.66771 | 144.83952 | 393 ft | 13 kts | 30° |
| 2026-05-04 07:40 | -37.66718 | 144.84065 | 391 ft | 17 kts | 79° |
| 2026-05-04 07:40 | -37.66697 | 144.84218 | 396 ft | 18 kts | 79° |
| 2026-05-04 07:40 | -37.66682 | 144.84364 | 397 ft | 17 kts | 81° |
| 2026-05-04 07:41 | -37.66687 | 144.84445 | 397 ft | 10 kts | 121° |
| 2026-05-04 07:41 | -37.66738 | 144.84511 | 393 ft | 7 kts | 135° |
| 2026-05-04 07:41 | -37.66768 | 144.84547 | 393 ft | 0 kts | 136° |
| 2026-05-04 07:41 | -37.66769 | 144.84549 | 393 ft | 0 kts | 136° |